createdAt,value
2023-03-13T00:02:07.102Z,16.20
2023-03-13T00:04:35.732Z,13.57
2023-03-13T00:07:04.814Z,16.52
2023-03-13T00:09:33.223Z,16.38
2023-03-13T00:12:01.647Z,14.82
2023-03-13T00:14:30.056Z,17.48
2023-03-13T00:17:00.160Z,11.18
2023-03-13T00:19:28.679Z,16.80
2023-03-13T00:21:57.111Z,12.57
2023-03-13T00:24:25.488Z,17.98
2023-03-13T00:26:53.900Z,19.00
2023-03-13T00:29:22.301Z,12.48
2023-03-13T00:31:50.812Z,15.35
2023-03-13T00:34:20.666Z,14.55
2023-03-13T00:36:49.085Z,14.68
2023-03-13T00:39:17.499Z,18.50
2023-03-13T00:41:46.017Z,17.15
2023-03-13T00:44:14.440Z,15.35
2023-03-13T00:46:42.900Z,14.45
2023-03-13T00:49:11.313Z,11.77
2023-03-13T00:51:41.093Z,18.42
2023-03-13T00:54:09.492Z,11.20
2023-03-13T00:56:38.200Z,15.45
2023-03-13T00:59:06.617Z,14.65
2023-03-13T01:01:36.260Z,19.60
2023-03-13T01:04:05.698Z,13.60
2023-03-13T01:06:35.212Z,15.45
2023-03-13T01:09:06.122Z,18.33
2023-03-13T01:11:36.662Z,15.40
2023-03-13T01:14:06.658Z,15.38
2023-03-13T01:16:35.907Z,16.67
2023-03-13T01:19:05.295Z,16.05
2023-03-13T01:21:33.806Z,18.58
2023-03-13T01:24:02.271Z,22.70
2023-03-13T01:26:32.257Z,18.02
2023-03-13T01:29:00.657Z,21.75
2023-03-13T01:31:30.037Z,16.67
2023-03-13T01:33:59.559Z,16.17
2023-03-13T01:36:28.857Z,12.95
2023-03-13T01:38:57.924Z,18.98
2023-03-13T01:41:26.648Z,17.42
2023-03-13T01:43:56.607Z,15.43
2023-03-13T01:46:27.676Z,15.85
2023-03-13T01:48:59.663Z,16.98
2023-03-13T01:51:29.335Z,17.17
2023-03-13T01:54:01.039Z,19.67
2023-03-13T01:56:32.257Z,12.20
2023-03-13T01:59:02.444Z,14.63
2023-03-13T02:01:31.371Z,12.23
2023-03-13T02:04:00.222Z,19.05
2023-03-13T02:06:30.204Z,21.15
2023-03-13T02:08:59.787Z,18.60
2023-03-13T02:11:31.555Z,16.90
2023-03-13T02:14:00.423Z,20.13
2023-03-13T02:16:30.516Z,23.58
2023-03-13T02:18:59.053Z,16.83
2023-03-13T02:21:34.470Z,15.77
2023-03-13T02:24:05.038Z,16.00
2023-03-13T02:26:34.894Z,16.98
2023-03-13T02:29:03.387Z,16.58
2023-03-13T02:31:32.039Z,14.73
2023-03-13T02:34:02.734Z,15.63
2023-03-13T02:36:32.892Z,17.52
2023-03-13T02:39:03.430Z,21.73
2023-03-13T02:41:32.305Z,14.65
2023-03-13T02:44:02.126Z,15.75
2023-03-13T02:46:32.433Z,22.95
2023-03-13T02:49:00.889Z,12.57
2023-03-13T02:51:31.420Z,14.02
2023-03-13T02:54:00.999Z,22.30
2023-03-13T02:56:29.795Z,13.50
2023-03-13T02:58:58.342Z,14.70
2023-03-13T03:01:28.211Z,11.73
2023-03-13T03:03:56.754Z,17.55
2023-03-13T03:06:25.238Z,11.70
2023-03-13T03:08:53.787Z,18.05
2023-03-13T03:11:22.198Z,15.85
2023-03-13T03:13:50.644Z,10.75
2023-03-13T03:16:19.616Z,16.42
2023-03-13T03:18:49.414Z,15.00
2023-03-13T03:21:17.932Z,12.90
2023-03-13T03:23:46.442Z,14.45
2023-03-13T03:26:14.885Z,11.00
2023-03-13T03:28:43.366Z,12.68
2023-03-13T03:31:13.017Z,10.75
2023-03-13T03:33:42.297Z,8.95
2023-03-13T03:36:13.717Z,8.25
2023-03-13T03:38:42.703Z,10.90
2023-03-13T03:41:11.986Z,8.20
2023-03-13T03:43:40.412Z,11.30
2023-03-13T03:46:09.460Z,5.30
2023-03-13T03:48:38.720Z,8.32
2023-03-13T03:51:07.400Z,8.82
2023-03-13T03:53:37.369Z,7.75
2023-03-13T03:56:06.426Z,8.10
2023-03-13T03:58:34.867Z,9.25
2023-03-13T04:01:03.268Z,4.70
2023-03-13T04:03:31.786Z,3.40
2023-03-13T04:06:00.309Z,4.75
2023-03-13T04:08:28.791Z,5.38
2023-03-13T04:10:58.562Z,2.83
2023-03-13T04:13:27.030Z,3.72
2023-03-13T04:15:55.452Z,4.07
2023-03-13T04:18:23.871Z,5.80
2023-03-13T04:20:52.334Z,5.05
2023-03-13T04:23:20.793Z,3.05
2023-03-13T04:25:49.232Z,3.65
2023-03-13T04:28:19.064Z,2.75
2023-03-13T04:30:47.545Z,5.78
2023-03-13T04:33:16.135Z,2.45
2023-03-13T04:35:44.734Z,2.47
2023-03-13T04:38:13.326Z,2.63
2023-03-13T04:40:43.244Z,4.13
2023-03-13T04:43:11.814Z,3.47
2023-03-13T04:45:41.587Z,6.80
2023-03-13T04:48:10.058Z,9.60
2023-03-13T04:50:38.456Z,7.00
2023-03-13T04:53:06.928Z,6.88
2023-03-13T04:55:35.365Z,9.73
2023-03-13T04:58:03.790Z,8.20
2023-03-13T05:00:32.259Z,11.77
2023-03-13T05:03:02.083Z,12.27
2023-03-13T05:05:30.555Z,10.65
2023-03-13T05:07:59.084Z,13.23
2023-03-13T05:10:27.692Z,11.30
2023-03-13T05:12:56.113Z,9.88
2023-03-13T05:15:24.541Z,10.85
2023-03-13T05:17:54.600Z,10.13
2023-03-13T05:20:24.706Z,18.13
2023-03-13T05:22:53.557Z,12.35
2023-03-13T05:25:22.735Z,12.35
2023-03-13T05:27:51.190Z,9.20
2023-03-13T05:30:20.478Z,7.45
2023-03-13T05:32:49.024Z,7.88
2023-03-13T05:35:17.523Z,9.07
2023-03-13T05:37:47.621Z,7.65
2023-03-13T05:40:16.300Z,4.85
2023-03-13T05:42:44.751Z,5.78
2023-03-13T05:45:13.768Z,6.03
2023-03-13T05:47:42.266Z,6.40
2023-03-13T05:50:11.162Z,6.55
2023-03-13T05:52:39.585Z,4.40
2023-03-13T05:55:09.928Z,7.25
2023-03-13T05:57:39.411Z,6.10
2023-03-13T06:00:08.566Z,3.60
2023-03-13T06:02:36.983Z,3.85
2023-03-13T06:05:05.583Z,4.22
2023-03-13T06:07:34.085Z,4.03
2023-03-13T06:10:02.524Z,5.13
2023-03-13T06:12:32.350Z,3.47
2023-03-13T06:15:00.791Z,6.68
2023-03-13T06:17:29.220Z,4.70
2023-03-13T06:19:57.696Z,3.20
2023-03-13T06:22:26.094Z,4.60
2023-03-13T06:24:54.703Z,3.50
2023-03-13T06:27:23.108Z,4.22
2023-03-13T06:29:52.958Z,3.28
2023-03-13T06:32:21.583Z,2.55
2023-03-13T06:34:50.131Z,2.28
2023-03-13T06:37:18.575Z,2.53
2023-03-13T06:39:47.051Z,3.50
2023-03-13T06:42:15.532Z,3.78
2023-03-13T06:44:44.817Z,2.92
2023-03-13T06:47:15.669Z,5.78
2023-03-13T06:49:44.199Z,5.40
2023-03-13T06:52:12.615Z,5.38
2023-03-13T06:54:41.192Z,4.78
2023-03-13T06:57:09.749Z,5.88
2023-03-13T06:59:39.230Z,5.95
2023-03-13T07:02:08.071Z,3.42
2023-03-13T07:04:38.213Z,4.05
2023-03-13T07:07:06.996Z,4.82
2023-03-13T07:09:35.520Z,6.30
2023-03-13T07:12:04.618Z,3.53
2023-03-13T07:14:33.112Z,7.88
2023-03-13T07:17:01.648Z,4.38
2023-03-13T07:19:30.124Z,5.72
2023-03-13T07:21:59.888Z,4.80
2023-03-13T07:24:28.375Z,7.60
2023-03-13T07:27:06.221Z,4.75
2023-03-13T07:29:36.200Z,5.75
2023-03-13T07:32:04.713Z,3.95
2023-03-13T07:34:33.335Z,5.47
2023-03-13T07:37:03.119Z,3.88
2023-03-13T07:39:31.730Z,4.72
2023-03-13T07:42:00.185Z,5.40
2023-03-13T07:44:28.814Z,5.05
2023-03-13T07:46:58.968Z,5.90
2023-03-13T07:49:27.930Z,4.72
2023-03-13T07:51:56.804Z,5.07
2023-03-13T07:54:26.671Z,3.70
2023-03-13T07:56:55.076Z,6.65
2023-03-13T07:59:23.535Z,4.38
2023-03-13T08:01:51.958Z,4.70
2023-03-13T08:04:20.415Z,5.70
2023-03-13T08:06:48.880Z,5.57
2023-03-13T08:09:17.335Z,5.28
2023-03-13T08:11:47.820Z,4.72
2023-03-13T08:14:16.730Z,6.90
2023-03-13T08:16:49.077Z,6.97
2023-03-13T08:19:17.725Z,7.10
2023-03-13T08:21:46.623Z,9.27
2023-03-13T08:24:15.209Z,10.35
2023-03-13T08:26:43.944Z,8.93
2023-03-13T08:29:14.585Z,14.48
2023-03-13T08:31:45.006Z,8.63
2023-03-13T08:34:13.954Z,11.82
2023-03-13T08:36:42.835Z,12.57
2023-03-13T08:39:13.126Z,12.23
2023-03-13T08:41:41.860Z,10.18
2023-03-13T08:44:12.245Z,9.18
2023-03-13T08:46:42.298Z,8.80
2023-03-13T08:49:11.413Z,8.35
2023-03-13T08:51:40.310Z,8.40
2023-03-13T08:54:08.779Z,5.28
2023-03-13T08:56:37.279Z,8.88
2023-03-13T08:59:06.517Z,7.25
2023-03-13T09:01:35.759Z,7.85
2023-03-13T09:04:07.086Z,12.70
2023-03-13T09:06:35.605Z,11.35
2023-03-13T09:09:04.909Z,10.75
2023-03-13T09:11:33.438Z,9.73
2023-03-13T09:14:02.209Z,7.70
2023-03-13T09:16:31.894Z,6.47
2023-03-13T09:19:00.913Z,6.47
2023-03-13T09:21:31.843Z,7.47
2023-03-13T09:24:00.638Z,3.78
2023-03-13T09:26:30.004Z,4.65
2023-03-13T09:28:58.796Z,6.90
2023-03-13T09:31:28.291Z,6.97
2023-03-13T09:33:56.907Z,9.20
2023-03-13T09:36:25.864Z,6.65
2023-03-13T09:38:56.372Z,7.28
2023-03-13T09:41:27.914Z,6.53
2023-03-13T09:44:00.600Z,6.43
2023-03-13T09:46:34.262Z,6.25
2023-03-13T09:49:04.745Z,6.20
2023-03-13T09:51:36.486Z,6.45
2023-03-13T09:54:08.367Z,6.85
2023-03-13T09:56:41.057Z,6.82
2023-03-13T09:59:15.332Z,5.95
2023-03-13T10:01:44.423Z,5.82
2023-03-13T10:04:16.382Z,4.80
2023-03-13T10:06:46.030Z,5.05
2023-03-13T10:09:23.721Z,6.18
2023-03-13T10:11:55.140Z,5.60
2023-03-13T10:14:28.998Z,7.80
2023-03-13T10:17:01.416Z,4.55
2023-03-13T10:19:33.336Z,5.68
2023-03-13T10:22:04.241Z,5.97
2023-03-13T10:24:35.740Z,7.25
2023-03-13T10:27:04.319Z,6.97
2023-03-13T10:29:33.766Z,4.60
2023-03-13T10:32:03.052Z,9.05
2023-03-13T10:34:32.816Z,7.85
2023-03-13T10:37:02.643Z,10.52
2023-03-13T10:39:31.842Z,7.95
2023-03-13T10:42:11.316Z,7.93
2023-03-13T10:44:39.921Z,6.22
2023-03-13T10:47:08.693Z,8.07
2023-03-13T10:49:48.298Z,7.00
2023-03-13T10:52:30.781Z,8.63
2023-03-13T10:55:02.270Z,12.15
2023-03-13T10:57:33.338Z,6.82
2023-03-13T11:00:07.133Z,5.18
2023-03-13T11:02:37.121Z,4.88
2023-03-13T11:05:26.330Z,5.43
2023-03-13T11:07:55.646Z,3.83
2023-03-13T11:10:25.873Z,7.30
2023-03-13T11:12:56.614Z,6.60
2023-03-13T11:15:27.389Z,5.22
2023-03-13T11:18:01.416Z,2.42
2023-03-13T11:20:30.627Z,2.10
2023-03-13T11:23:06.797Z,7.05
2023-03-13T11:25:38.201Z,5.57
2023-03-13T11:28:20.194Z,4.55
2023-03-13T11:30:54.500Z,4.57
2023-03-13T11:33:28.354Z,2.40
2023-03-13T11:36:01.784Z,7.35
2023-03-13T11:38:33.241Z,5.13
2023-03-13T11:41:06.346Z,4.28
2023-03-13T11:43:42.442Z,3.10
2023-03-13T11:46:16.974Z,2.97
2023-03-13T11:48:52.976Z,3.40
2023-03-13T11:51:24.121Z,4.78
2023-03-13T11:54:05.373Z,3.60
2023-03-13T11:56:37.019Z,3.55
2023-03-13T11:59:15.555Z,2.35
2023-03-13T12:01:48.475Z,1.85
2023-03-13T12:04:20.314Z,2.30
2023-03-13T12:06:51.855Z,3.17
2023-03-13T12:09:27.241Z,4.00
2023-03-13T12:12:03.482Z,4.07
2023-03-13T12:14:35.900Z,1.48
2023-03-13T12:17:05.777Z,2.20
2023-03-13T12:19:36.682Z,3.38
2023-03-13T12:22:10.189Z,1.88
2023-03-13T12:24:42.023Z,1.95
2023-03-13T12:27:14.332Z,2.40
2023-03-13T12:29:47.500Z,3.50
2023-03-13T12:32:18.928Z,2.40
2023-03-13T12:34:53.514Z,3.70
2023-03-13T12:37:25.611Z,1.52
2023-03-13T12:39:57.312Z,2.80
2023-03-13T12:42:32.209Z,1.40
2023-03-13T12:45:02.204Z,4.03
2023-03-13T12:47:33.861Z,3.42
2023-03-13T12:50:19.852Z,2.65
2023-03-13T12:53:06.737Z,1.92
2023-03-13T12:55:41.733Z,2.67
2023-03-13T12:58:22.773Z,5.63
2023-03-13T13:00:53.998Z,2.72
2023-03-13T13:03:26.571Z,3.00
2023-03-13T13:06:15.870Z,2.45
2023-03-13T13:08:45.848Z,0.95
2023-03-13T13:11:33.028Z,1.75
2023-03-13T13:14:01.486Z,2.03
2023-03-13T13:16:31.766Z,1.65
2023-03-13T13:19:14.224Z,1.92
2023-03-13T13:21:42.774Z,3.17
2023-03-13T13:24:26.083Z,2.58
2023-03-13T13:26:54.534Z,2.85
2023-03-13T13:29:37.806Z,4.75
2023-03-13T13:32:16.373Z,1.73
2023-03-13T13:34:57.787Z,3.17
2023-03-13T13:37:29.035Z,2.83
2023-03-13T13:40:11.184Z,2.25
2023-03-13T13:42:43.858Z,4.82
2023-03-13T13:45:25.545Z,3.60
2023-03-13T13:48:15.448Z,3.22
2023-03-13T13:50:58.743Z,2.13
2023-03-13T13:53:34.737Z,2.40
2023-03-13T13:56:10.219Z,3.75
2023-03-13T13:58:41.830Z,1.90
2023-03-13T14:01:18.235Z,3.13
2023-03-13T14:03:46.766Z,2.65
2023-03-13T14:06:18.991Z,4.07
2023-03-13T14:08:50.242Z,2.53
2023-03-13T14:11:25.175Z,2.63
2023-03-13T14:14:13.157Z,1.60
2023-03-13T14:16:42.447Z,2.28
2023-03-13T14:19:22.937Z,1.50
2023-03-13T14:21:51.604Z,4.85
2023-03-13T14:24:21.466Z,2.63
2023-03-13T14:26:50.049Z,1.70
2023-03-13T14:29:20.668Z,1.65
2023-03-13T14:31:53.147Z,2.67
2023-03-13T14:34:21.805Z,2.85
2023-03-13T14:36:51.174Z,2.08
2023-03-13T14:39:22.258Z,2.95
2023-03-13T14:41:51.870Z,2.13
2023-03-13T14:44:24.324Z,3.28
2023-03-13T14:46:56.939Z,3.33
2023-03-13T14:49:27.168Z,1.75
2023-03-13T14:52:00.997Z,3.60
2023-03-13T14:54:32.404Z,3.70
2023-03-13T14:57:04.837Z,2.35
2023-03-13T14:59:33.344Z,2.30
2023-03-13T15:02:02.442Z,3.28
2023-03-13T15:04:49.739Z,1.65
2023-03-13T15:07:18.436Z,2.63
2023-03-13T15:09:49.561Z,2.67
2023-03-13T15:12:18.990Z,3.28
2023-03-13T15:14:48.053Z,5.38
2023-03-13T15:17:18.038Z,5.15
2023-03-13T15:19:49.792Z,6.10
2023-03-13T15:22:18.801Z,4.95
2023-03-13T15:25:04.987Z,3.75
2023-03-13T15:27:34.019Z,5.88
2023-03-13T15:30:02.461Z,4.95
2023-03-13T15:32:31.747Z,3.60
2023-03-13T15:35:01.924Z,4.88
2023-03-13T15:37:31.003Z,2.13
2023-03-13T15:40:00.840Z,4.00
2023-03-13T15:42:29.272Z,3.17
2023-03-13T15:44:57.917Z,2.20
2023-03-13T15:47:27.779Z,3.75
2023-03-13T15:49:56.282Z,2.92
2023-03-13T15:52:24.736Z,3.38
2023-03-13T15:54:53.357Z,3.10
2023-03-13T15:57:24.517Z,3.25
2023-03-13T15:59:53.252Z,4.65
2023-03-13T16:02:22.558Z,3.08
2023-03-13T16:04:51.407Z,7.57
2023-03-13T16:07:20.908Z,3.72
2023-03-13T16:09:49.363Z,4.82
2023-03-13T16:12:17.948Z,2.72
2023-03-13T16:14:47.797Z,5.03
2023-03-13T16:17:17.072Z,4.78
2023-03-13T16:19:46.000Z,4.63
2023-03-13T16:22:14.458Z,4.03
2023-03-13T16:24:43.432Z,5.50
2023-03-13T16:27:16.126Z,5.45
2023-03-13T16:29:44.763Z,5.40
2023-03-13T16:32:15.090Z,5.10
2023-03-13T16:34:43.705Z,5.63
2023-03-13T16:37:13.370Z,6.95
2023-03-13T16:39:43.108Z,4.80
2023-03-13T16:42:11.611Z,3.95
2023-03-13T16:44:40.300Z,2.95
2023-03-13T16:47:17.460Z,3.58
2023-03-13T16:49:47.748Z,3.63
2023-03-13T16:52:16.589Z,5.45
2023-03-13T16:54:45.489Z,4.10
2023-03-13T16:57:14.478Z,5.22
2023-03-13T16:59:42.918Z,5.38
2023-03-13T17:02:15.560Z,5.18
2023-03-13T17:04:45.024Z,4.53
2023-03-13T17:07:18.520Z,4.20
2023-03-13T17:09:47.017Z,5.07
2023-03-13T17:12:15.478Z,4.13
2023-03-13T17:14:43.908Z,4.43
2023-03-13T17:17:13.656Z,5.25
2023-03-13T17:19:42.127Z,4.07
2023-03-13T17:22:13.479Z,4.32
2023-03-13T17:24:43.723Z,2.75
2023-03-13T17:27:13.232Z,4.75
2023-03-13T17:29:41.778Z,5.20
2023-03-13T17:32:11.277Z,3.70
2023-03-13T17:34:39.860Z,4.40
2023-03-13T17:37:13.148Z,6.00
2023-03-13T17:39:43.371Z,4.68
2023-03-13T17:42:11.796Z,6.20
2023-03-13T17:44:41.247Z,8.02
2023-03-13T17:47:13.257Z,9.50
2023-03-13T17:49:41.736Z,7.97
2023-03-13T17:52:12.270Z,7.43
2023-03-13T17:54:40.662Z,4.28
2023-03-13T17:57:14.910Z,5.07
2023-03-13T17:59:43.449Z,3.33
2023-03-13T18:02:13.322Z,2.75
2023-03-13T18:04:42.133Z,5.72
2023-03-13T18:07:17.801Z,6.93
2023-03-13T18:09:47.878Z,4.13
2023-03-13T18:12:17.927Z,6.07
2023-03-13T18:14:46.768Z,4.88
2023-03-13T18:17:16.491Z,5.50
2023-03-13T18:19:44.985Z,4.40
2023-03-13T18:22:14.732Z,4.93
2023-03-13T18:24:43.634Z,7.65
2023-03-13T18:27:13.274Z,4.32
2023-03-13T18:29:43.379Z,5.05
2023-03-13T18:32:12.261Z,3.47
2023-03-13T18:34:41.111Z,3.33
2023-03-13T18:37:16.232Z,5.25
2023-03-13T18:39:44.784Z,4.65
2023-03-13T18:42:13.700Z,4.45
2023-03-13T18:44:46.662Z,4.60
2023-03-13T18:47:16.669Z,4.97
2023-03-13T18:49:53.235Z,4.68
2023-03-13T18:52:21.703Z,4.70
2023-03-13T18:54:50.148Z,6.55
2023-03-13T18:57:19.213Z,4.88
2023-03-13T18:59:49.110Z,4.80
2023-03-13T19:02:18.190Z,5.25
2023-03-13T19:04:47.206Z,6.60
2023-03-13T19:07:16.510Z,5.18
2023-03-13T19:09:47.085Z,3.00
2023-03-13T19:12:16.608Z,6.00
2023-03-13T19:14:45.060Z,4.03
2023-03-13T19:17:21.017Z,5.15
2023-03-13T19:19:49.673Z,4.85
2023-03-13T19:22:18.174Z,4.72
2023-03-13T19:24:46.610Z,6.00
2023-03-13T19:27:17.024Z,4.72
2023-03-13T19:29:45.998Z,7.13
2023-03-13T19:32:15.303Z,4.22
2023-03-13T19:34:45.439Z,5.50
2023-03-13T19:37:14.105Z,4.57
2023-03-13T19:39:45.193Z,3.78
2023-03-13T19:42:13.662Z,7.28
2023-03-13T19:44:42.091Z,7.88
2023-03-13T19:47:12.878Z,6.90
2023-03-13T19:49:41.288Z,4.68
2023-03-13T19:52:11.109Z,4.35
2023-03-13T19:54:39.585Z,4.63
2023-03-13T19:57:08.074Z,6.50
2023-03-13T19:59:38.803Z,6.32
2023-03-13T20:02:09.255Z,4.10
2023-03-13T20:04:37.907Z,6.22
2023-03-13T20:07:06.393Z,3.92
2023-03-13T20:09:36.755Z,4.95
2023-03-13T20:12:05.524Z,7.03
2023-03-13T20:14:33.981Z,5.00
2023-03-13T20:17:03.286Z,4.30
2023-03-13T20:19:31.784Z,7.68
2023-03-13T20:22:03.649Z,7.50
2023-03-13T20:24:33.269Z,5.05
2023-03-13T20:27:03.121Z,7.15
2023-03-13T20:29:31.798Z,7.18
2023-03-13T20:32:01.334Z,4.07
2023-03-13T20:34:29.865Z,5.75
2023-03-13T20:36:59.980Z,8.40
2023-03-13T20:39:29.100Z,4.72
2023-03-13T20:41:57.563Z,6.47
2023-03-13T20:44:27.421Z,5.55
2023-03-13T20:46:55.934Z,4.35
2023-03-13T20:49:24.627Z,7.05
2023-03-13T20:51:53.077Z,5.20
2023-03-13T20:54:22.763Z,3.95
2023-03-13T20:56:51.568Z,5.95
2023-03-13T20:59:20.672Z,7.65
2023-03-13T21:01:50.602Z,5.15
2023-03-13T21:04:19.236Z,7.88
2023-03-13T21:06:50.156Z,8.00
2023-03-13T21:09:19.017Z,5.63
2023-03-13T21:11:47.643Z,9.63
2023-03-13T21:14:16.101Z,5.72
2023-03-13T21:16:44.590Z,7.18
2023-03-13T21:19:14.564Z,5.75
2023-03-13T21:21:43.111Z,5.72
2023-03-13T21:24:11.577Z,5.88
2023-03-13T21:26:40.066Z,7.28
2023-03-13T21:29:10.795Z,4.90
2023-03-13T21:31:39.851Z,5.55
2023-03-13T21:34:08.639Z,5.10
2023-03-13T21:36:38.599Z,5.72
2023-03-13T21:39:08.552Z,4.20
2023-03-13T21:41:37.224Z,4.38
2023-03-13T21:44:05.746Z,6.10
2023-03-13T21:46:34.360Z,4.28
2023-03-13T21:49:03.132Z,4.80
2023-03-13T21:51:35.012Z,4.95
2023-03-13T21:54:05.139Z,5.25
2023-03-13T21:56:33.617Z,3.92
2023-03-13T21:59:02.142Z,5.78
2023-03-13T22:01:30.788Z,4.35
2023-03-13T22:03:59.284Z,6.97
2023-03-13T22:06:27.736Z,4.88
2023-03-13T22:08:56.144Z,4.88
2023-03-13T22:11:26.183Z,5.45
2023-03-13T22:13:54.887Z,3.60
2023-03-13T22:16:25.389Z,6.32
2023-03-13T22:18:54.127Z,4.55
2023-03-13T22:21:22.653Z,4.18
2023-03-13T22:23:51.092Z,5.75
2023-03-13T22:26:19.532Z,7.30
2023-03-13T22:28:49.283Z,10.23
2023-03-13T22:31:18.514Z,6.68
2023-03-13T22:33:47.060Z,4.65
2023-03-13T22:36:15.619Z,3.47
2023-03-13T22:38:44.376Z,5.75
2023-03-13T22:41:14.196Z,5.78
2023-03-13T22:43:42.741Z,8.52
2023-03-13T22:46:12.831Z,4.03
2023-03-13T22:48:41.906Z,8.35
2023-03-13T22:51:11.355Z,4.53
2023-03-13T22:53:40.793Z,5.38
2023-03-13T22:56:11.013Z,6.15
2023-03-13T22:58:39.682Z,5.03
2023-03-13T23:01:08.562Z,5.75
2023-03-13T23:03:38.512Z,6.70
2023-03-13T23:06:07.606Z,3.85
2023-03-13T23:08:36.204Z,3.25
2023-03-13T23:11:05.043Z,2.90
2023-03-13T23:13:34.010Z,4.97
2023-03-13T23:16:07.748Z,5.82
2023-03-13T23:18:36.495Z,6.57
2023-03-13T23:21:07.379Z,8.25
2023-03-13T23:23:35.831Z,5.05
2023-03-13T23:26:04.404Z,3.63
2023-03-13T23:28:33.080Z,4.90
2023-03-13T23:31:01.522Z,5.88
2023-03-13T23:33:31.233Z,4.15
2023-03-13T23:35:59.676Z,5.93
2023-03-13T23:38:29.482Z,5.82
2023-03-13T23:40:57.893Z,3.55
2023-03-13T23:43:26.323Z,4.20
2023-03-13T23:45:54.726Z,6.15
2023-03-13T23:48:23.207Z,3.92
2023-03-13T23:50:51.606Z,5.47
2023-03-13T23:53:20.046Z,5.63
2023-03-13T23:55:49.812Z,3.58
2023-03-13T23:58:18.241Z,5.38
